createdAt,value
2023-05-11T00:00:12.916Z,15.35
2023-05-11T00:01:12.947Z,15.32
2023-05-11T00:02:13.074Z,15.28
2023-05-11T00:03:13.020Z,15.21
2023-05-11T00:04:12.971Z,15.18
2023-05-11T00:05:12.813Z,15.14
2023-05-11T00:06:12.839Z,15.12
2023-05-11T00:07:12.838Z,15.12
2023-05-11T00:08:15.558Z,15.14
2023-05-11T00:09:12.775Z,15.17
2023-05-11T00:10:12.816Z,15.21
2023-05-11T00:11:12.745Z,15.22
2023-05-11T00:12:12.783Z,15.20
2023-05-11T00:13:12.723Z,15.16
2023-05-11T00:14:12.793Z,15.15
2023-05-11T00:15:12.696Z,15.14
2023-05-11T00:16:12.778Z,15.14
2023-05-11T00:17:12.671Z,15.15
2023-05-11T00:18:12.757Z,15.18
2023-05-11T00:19:12.798Z,15.21
2023-05-11T00:20:12.663Z,15.19
2023-05-11T00:21:12.629Z,15.13
2023-05-11T00:22:12.655Z,15.09
2023-05-11T00:23:12.592Z,15.06
2023-05-11T00:24:12.669Z,15.03
2023-05-11T00:25:12.583Z,15.02
2023-05-11T00:26:12.575Z,14.99
2023-05-11T00:27:12.523Z,15.00
2023-05-11T00:28:12.633Z,15.01
2023-05-11T00:29:12.498Z,15.01
2023-05-11T00:30:12.504Z,15.01
2023-05-11T00:31:12.527Z,15.02
2023-05-11T00:32:12.520Z,15.00
2023-05-11T00:33:12.456Z,15.01
2023-05-11T00:34:12.529Z,15.03
2023-05-11T00:35:12.440Z,15.04
2023-05-11T00:36:12.450Z,15.03
2023-05-11T00:37:12.425Z,15.00
2023-05-11T00:38:14.451Z,14.96
2023-05-11T00:39:12.359Z,14.92
2023-05-11T00:40:12.372Z,14.92
2023-05-11T00:41:12.366Z,14.90
2023-05-11T00:42:12.400Z,14.84
2023-05-11T00:43:12.326Z,14.80
2023-05-11T00:44:12.398Z,14.77
2023-05-11T00:45:12.284Z,14.77
2023-05-11T00:46:12.317Z,14.81
2023-05-11T00:47:12.404Z,14.86
2023-05-11T00:48:12.331Z,14.86
2023-05-11T00:49:12.262Z,14.86
2023-05-11T00:50:12.250Z,14.87
2023-05-11T00:51:12.219Z,14.88
2023-05-11T00:52:12.274Z,14.86
2023-05-11T00:53:12.171Z,14.87
2023-05-11T00:54:12.285Z,14.88
2023-05-11T00:55:12.180Z,14.91
2023-05-11T00:56:12.178Z,14.91
2023-05-11T00:57:12.120Z,14.88
2023-05-11T00:58:14.215Z,14.87
2023-05-11T00:59:12.113Z,14.87
2023-05-11T01:00:12.120Z,14.89
2023-05-11T01:01:12.149Z,14.89
2023-05-11T01:02:12.167Z,14.85
2023-05-11T01:03:12.072Z,14.81
2023-05-11T01:04:12.132Z,14.83
2023-05-11T01:05:12.025Z,14.82
2023-05-11T01:06:12.042Z,14.79
2023-05-11T01:07:12.026Z,14.78
2023-05-11T01:08:12.068Z,14.77
2023-05-11T01:09:11.960Z,14.77
2023-05-11T01:10:11.977Z,14.77
2023-05-11T01:11:11.960Z,14.74
2023-05-11T01:12:12.012Z,14.72
2023-05-11T01:13:11.955Z,14.69
2023-05-11T01:14:12.010Z,14.67
2023-05-11T01:15:11.877Z,14.64
2023-05-11T01:16:11.953Z,14.64
2023-05-11T01:17:11.888Z,14.62
2023-05-11T01:18:12.003Z,14.58
2023-05-11T01:19:11.941Z,14.56
2023-05-11T01:20:11.893Z,14.59
2023-05-11T01:21:11.829Z,14.66
2023-05-11T01:22:11.874Z,14.70
2023-05-11T01:23:11.802Z,14.73
2023-05-11T01:24:11.886Z,14.74
2023-05-11T01:25:11.770Z,14.71
2023-05-11T01:26:11.859Z,14.67
2023-05-11T01:27:11.747Z,14.63
2023-05-11T01:28:11.810Z,14.59
2023-05-11T01:29:11.706Z,14.54
2023-05-11T01:30:11.719Z,14.47
2023-05-11T01:31:11.751Z,14.44
2023-05-11T01:32:11.816Z,14.43
2023-05-11T01:33:11.700Z,14.41
2023-05-11T01:34:11.748Z,14.39
2023-05-11T01:35:11.644Z,14.39
2023-05-11T01:36:11.648Z,14.45
2023-05-11T01:37:11.637Z,14.50
2023-05-11T01:38:11.678Z,14.54
2023-05-11T01:39:11.555Z,14.51
2023-05-11T01:40:11.597Z,14.46
2023-05-11T01:41:11.568Z,14.44
2023-05-11T01:42:12.668Z,14.45
2023-05-11T01:43:11.533Z,14.45
2023-05-11T01:44:11.613Z,14.43
2023-05-11T01:45:11.496Z,14.41
2023-05-11T01:46:11.532Z,14.38
2023-05-11T01:47:11.472Z,14.37
2023-05-11T01:48:11.531Z,14.36
2023-05-11T01:49:11.449Z,14.33
2023-05-11T01:50:11.452Z,14.31
2023-05-11T01:51:11.430Z,14.32
2023-05-11T01:52:11.460Z,14.35
2023-05-11T01:53:11.382Z,14.36
2023-05-11T01:54:11.497Z,14.38
2023-05-11T01:55:11.368Z,14.41
2023-05-11T01:56:11.393Z,14.41
2023-05-11T01:57:11.322Z,14.39
2023-05-11T01:58:11.406Z,14.36
2023-05-11T01:59:11.292Z,14.34
2023-05-11T02:00:11.351Z,14.32
2023-05-11T02:01:11.299Z,14.30
2023-05-11T02:02:11.341Z,14.29
2023-05-11T02:03:11.453Z,14.30
2023-05-11T02:04:11.244Z,14.28
2023-05-11T02:05:11.218Z,14.23
2023-05-11T02:06:11.284Z,14.18
2023-05-11T02:07:11.218Z,14.14
2023-05-11T02:08:11.276Z,14.11
2023-05-11T02:09:11.202Z,14.08
2023-05-11T02:10:11.204Z,14.03
2023-05-11T02:11:11.156Z,14.01
2023-05-11T02:12:13.215Z,14.01
2023-05-11T02:13:11.128Z,14.02
2023-05-11T02:14:12.144Z,14.05
2023-05-11T02:15:11.081Z,14.09
2023-05-11T02:16:11.192Z,14.12
2023-05-11T02:17:11.063Z,14.11
2023-05-11T02:18:11.182Z,14.10
2023-05-11T02:19:11.083Z,14.07
2023-05-11T02:20:11.047Z,14.04
2023-05-11T02:21:11.028Z,14.00
2023-05-11T02:22:11.090Z,13.96
2023-05-11T02:23:10.987Z,13.94
2023-05-11T02:24:10.970Z,13.91
2023-05-11T02:25:10.975Z,13.89
2023-05-11T02:26:10.988Z,13.87
2023-05-11T02:27:10.932Z,13.85
2023-05-11T02:28:11.021Z,13.81
2023-05-11T02:29:10.878Z,13.77
2023-05-11T02:30:10.943Z,13.75
2023-05-11T02:31:10.889Z,13.74
2023-05-11T02:32:10.943Z,13.74
2023-05-11T02:33:10.937Z,13.76
2023-05-11T02:34:10.859Z,13.79
2023-05-11T02:35:10.811Z,13.81
2023-05-11T02:36:11.884Z,13.79
2023-05-11T02:37:10.835Z,13.74
2023-05-11T02:38:10.904Z,13.71
2023-05-11T02:39:10.773Z,13.72
2023-05-11T02:40:10.891Z,13.71
2023-05-11T02:41:10.734Z,13.72
2023-05-11T02:42:10.817Z,13.73
2023-05-11T02:43:10.730Z,13.73
2023-05-11T02:44:10.712Z,13.73
2023-05-11T02:45:10.671Z,13.76
2023-05-11T02:46:31.750Z,13.79
2023-05-11T02:47:10.646Z,13.80
2023-05-11T02:48:10.735Z,13.78
2023-05-11T02:49:10.651Z,13.75
2023-05-11T02:50:10.709Z,13.74
2023-05-11T02:51:10.593Z,13.77
2023-05-11T02:52:10.678Z,13.80
2023-05-11T02:53:10.576Z,13.82
2023-05-11T02:54:10.611Z,13.83
2023-05-11T02:55:10.549Z,13.82
2023-05-11T02:56:10.598Z,13.78
2023-05-11T02:57:10.527Z,13.74
2023-05-11T02:58:10.603Z,13.72
2023-05-11T02:59:10.487Z,13.75
2023-05-11T03:00:10.579Z,13.76
2023-05-11T03:01:10.656Z,13.74
2023-05-11T03:02:10.690Z,13.72
2023-05-11T03:03:10.509Z,13.73
2023-05-11T03:04:10.468Z,13.75
2023-05-11T03:05:10.396Z,13.76
2023-05-11T03:06:10.490Z,13.79
2023-05-11T03:07:10.395Z,13.78
2023-05-11T03:08:10.385Z,13.79
2023-05-11T03:09:10.594Z,13.77
2023-05-11T03:10:10.448Z,13.74
2023-05-11T03:11:10.342Z,13.71
2023-05-11T03:12:10.396Z,13.72
2023-05-11T03:13:10.300Z,13.68
2023-05-11T03:14:10.327Z,13.66
2023-05-11T03:15:10.273Z,13.66
2023-05-11T03:16:10.353Z,13.65
2023-05-11T03:17:10.261Z,13.67
2023-05-11T03:18:10.269Z,13.70
2023-05-11T03:19:10.226Z,13.71
2023-05-11T03:20:10.259Z,13.73
2023-05-11T03:21:10.185Z,13.72
2023-05-11T03:22:10.277Z,13.68
2023-05-11T03:23:10.172Z,13.66
2023-05-11T03:24:10.190Z,13.63
2023-05-11T03:25:10.166Z,13.62
2023-05-11T03:26:11.222Z,13.62
2023-05-11T03:27:10.123Z,13.59
2023-05-11T03:28:10.243Z,13.57
2023-05-11T03:29:10.084Z,13.53
2023-05-11T03:30:10.207Z,13.50
2023-05-11T03:31:10.196Z,13.47
2023-05-11T03:32:10.249Z,13.45
2023-05-11T03:33:10.078Z,13.45
2023-05-11T03:34:10.080Z,13.45
2023-05-11T03:35:10.012Z,13.44
2023-05-11T03:36:10.235Z,13.44
2023-05-11T03:37:10.005Z,13.43
2023-05-11T03:38:09.993Z,13.42
2023-05-11T03:39:09.943Z,13.40
2023-05-11T03:40:10.013Z,13.40
2023-05-11T03:41:10.063Z,13.40
2023-05-11T03:42:10.070Z,13.39
2023-05-11T03:43:09.923Z,13.40
2023-05-11T03:44:09.939Z,13.40
2023-05-11T03:45:10.012Z,13.42
2023-05-11T03:46:10.000Z,13.43
2023-05-11T03:47:09.853Z,13.42
2023-05-11T03:48:09.989Z,13.41
2023-05-11T03:49:12.759Z,13.40
2023-05-11T03:50:09.813Z,13.41
2023-05-11T03:51:09.941Z,13.41
2023-05-11T03:52:09.768Z,13.40
2023-05-11T03:53:09.810Z,13.40
2023-05-11T03:54:09.853Z,13.40
2023-05-11T03:55:09.863Z,13.39
2023-05-11T03:56:09.718Z,13.38
2023-05-11T03:57:09.720Z,13.37
2023-05-11T03:58:09.687Z,13.35
2023-05-11T03:59:09.751Z,13.34
2023-05-11T04:00:09.703Z,13.34
2023-05-11T04:01:09.704Z,13.33
2023-05-11T04:02:09.658Z,13.34
2023-05-11T04:03:09.825Z,13.34
2023-05-11T04:04:09.645Z,13.34
2023-05-11T04:05:09.628Z,13.35
2023-05-11T04:06:09.585Z,13.37
2023-05-11T04:07:09.654Z,13.39
2023-05-11T04:08:09.586Z,13.41
2023-05-11T04:09:09.626Z,13.43
2023-05-11T04:10:09.686Z,13.43
2023-05-11T04:11:09.706Z,13.47
2023-05-11T04:12:09.518Z,13.50
2023-05-11T04:13:09.596Z,13.53
2023-05-11T04:14:09.461Z,13.54
2023-05-11T04:15:09.568Z,13.57
2023-05-11T04:16:09.503Z,13.61
2023-05-11T04:17:09.601Z,13.63
2023-05-11T04:18:09.595Z,13.65
2023-05-11T04:19:09.546Z,13.65
2023-05-11T04:20:09.384Z,13.65
2023-05-11T04:21:09.475Z,13.66
2023-05-11T04:22:09.432Z,13.67
2023-05-11T04:23:10.550Z,13.69
2023-05-11T04:24:09.422Z,13.67
2023-05-11T04:25:09.419Z,13.66
2023-05-11T04:26:09.306Z,13.64
2023-05-11T04:27:09.428Z,13.63
2023-05-11T04:28:09.283Z,13.63
2023-05-11T04:29:09.320Z,13.65
2023-05-11T04:30:09.378Z,13.67
2023-05-11T04:31:09.351Z,13.71
2023-05-11T04:32:09.234Z,13.73
2023-05-11T04:33:09.300Z,13.73
2023-05-11T04:34:09.239Z,13.73
2023-05-11T04:35:09.290Z,13.73
2023-05-11T04:36:09.158Z,13.70
2023-05-11T04:37:09.404Z,13.69
2023-05-11T04:38:09.147Z,13.68
2023-05-11T04:39:09.198Z,13.67
2023-05-11T04:40:09.157Z,13.69
2023-05-11T04:41:10.137Z,13.71
2023-05-11T04:42:09.097Z,13.71
2023-05-11T04:43:09.193Z,13.74
2023-05-11T04:44:09.112Z,13.74
2023-05-11T04:45:09.136Z,13.73
2023-05-11T04:46:09.027Z,13.72
2023-05-11T04:47:09.120Z,13.73
2023-05-11T04:48:09.010Z,13.74
2023-05-11T04:49:09.123Z,13.76
2023-05-11T04:50:08.968Z,13.76
2023-05-11T04:51:08.980Z,13.76
2023-05-11T04:52:08.942Z,13.75
2023-05-11T04:53:08.996Z,13.75
2023-05-11T04:54:08.926Z,13.75
2023-05-11T04:55:08.993Z,13.73
2023-05-11T04:56:08.891Z,13.72
2023-05-11T04:57:08.919Z,13.72
2023-05-11T04:58:08.936Z,13.74
2023-05-11T04:59:08.955Z,13.76
2023-05-11T05:00:08.954Z,13.76
2023-05-11T05:01:09.147Z,13.77
2023-05-11T05:02:08.811Z,13.79
2023-05-11T05:03:08.894Z,13.80
2023-05-11T05:04:08.884Z,13.81
2023-05-11T05:05:08.894Z,13.82
2023-05-11T05:06:08.771Z,13.84
2023-05-11T05:07:08.876Z,13.86
2023-05-11T05:08:08.735Z,13.88
2023-05-11T05:09:08.809Z,13.90
2023-05-11T05:10:08.728Z,13.91
2023-05-11T05:11:08.830Z,13.92
2023-05-11T05:12:08.695Z,13.93
2023-05-11T05:13:08.797Z,13.93
2023-05-11T05:14:08.828Z,13.92
2023-05-11T05:15:08.779Z,13.96
2023-05-11T05:16:08.641Z,13.99
2023-05-11T05:17:08.745Z,14.01
2023-05-11T05:18:08.610Z,14.04
2023-05-11T05:19:08.764Z,14.06
2023-05-11T05:20:08.635Z,14.07
2023-05-11T05:21:08.596Z,14.10
2023-05-11T05:22:08.543Z,14.12
2023-05-11T05:23:08.610Z,14.14
2023-05-11T05:24:08.524Z,14.15
2023-05-11T05:25:08.570Z,14.16
2023-05-11T05:26:08.598Z,14.16
2023-05-11T05:27:08.553Z,14.17
2023-05-11T05:28:08.478Z,14.18
2023-05-11T05:29:08.542Z,14.22
2023-05-11T05:30:08.444Z,14.27
2023-05-11T05:31:08.594Z,14.28
2023-05-11T05:32:08.448Z,14.30
2023-05-11T05:33:08.510Z,14.30
2023-05-11T05:34:08.373Z,14.30
2023-05-11T05:35:08.383Z,14.31
2023-05-11T05:36:08.348Z,14.30
2023-05-11T05:37:08.444Z,14.33
2023-05-11T05:38:08.322Z,14.38
2023-05-11T05:39:08.642Z,14.45
2023-05-11T05:40:08.303Z,14.53
2023-05-11T05:41:08.343Z,14.56
2023-05-11T05:42:08.286Z,14.59
2023-05-11T05:43:08.295Z,14.60
2023-05-11T05:44:08.401Z,14.58
2023-05-11T05:45:08.256Z,14.55
2023-05-11T05:46:08.230Z,14.52
2023-05-11T05:47:08.262Z,14.52
2023-05-11T05:48:08.240Z,14.55
2023-05-11T05:49:08.244Z,14.57
2023-05-11T05:50:08.337Z,14.60
2023-05-11T05:51:08.205Z,14.62
2023-05-11T05:52:08.160Z,14.65
2023-05-11T05:53:08.206Z,14.66
2023-05-11T05:54:08.128Z,14.63
2023-05-11T05:55:08.193Z,14.62
2023-05-11T05:56:08.119Z,14.66
2023-05-11T05:57:09.173Z,14.71
2023-05-11T05:58:08.060Z,14.75
2023-05-11T05:59:08.522Z,14.80
2023-05-11T06:00:08.067Z,14.89
2023-05-11T06:01:08.196Z,14.96
2023-05-11T06:02:08.332Z,14.99
2023-05-11T06:03:08.214Z,14.98
2023-05-11T06:04:08.216Z,15.04
2023-05-11T06:05:08.119Z,15.17
2023-05-11T06:06:08.135Z,15.26
2023-05-11T06:07:08.077Z,15.33
2023-05-11T06:08:10.908Z,15.37
2023-05-11T06:09:08.032Z,15.35
2023-05-11T06:10:07.913Z,15.27
2023-05-11T06:11:07.930Z,15.20
2023-05-11T06:12:07.870Z,15.14
2023-05-11T06:13:07.913Z,15.11
2023-05-11T06:14:07.835Z,15.09
2023-05-11T06:15:07.852Z,15.09
2023-05-11T06:16:07.820Z,15.09
2023-05-11T06:17:07.869Z,15.10
2023-05-11T06:18:07.850Z,15.09
2023-05-11T06:19:07.871Z,15.10
2023-05-11T06:20:07.762Z,15.10
2023-05-11T06:21:07.827Z,15.09
2023-05-11T06:22:07.757Z,15.07
2023-05-11T06:23:07.800Z,15.08
2023-05-11T06:24:07.729Z,15.10
2023-05-11T06:25:07.801Z,15.11
2023-05-11T06:26:07.671Z,15.14
2023-05-11T06:27:07.747Z,15.20
2023-05-11T06:28:07.674Z,15.23
2023-05-11T06:29:07.758Z,15.24
2023-05-11T06:30:07.689Z,15.22
2023-05-11T06:31:07.804Z,15.20
2023-05-11T06:32:07.648Z,15.20
2023-05-11T06:33:08.739Z,15.24
2023-05-11T06:34:07.652Z,15.31
2023-05-11T06:35:07.637Z,15.40
2023-05-11T06:36:07.558Z,15.55
2023-05-11T06:37:07.713Z,15.70
2023-05-11T06:38:07.522Z,15.87
2023-05-11T06:39:08.617Z,16.00
2023-05-11T06:40:07.506Z,16.06
2023-05-11T06:41:07.652Z,16.10
2023-05-11T06:42:07.481Z,16.14
2023-05-11T06:43:07.636Z,16.19
2023-05-11T06:44:07.672Z,16.23
2023-05-11T06:45:07.505Z,16.31
2023-05-11T06:46:07.497Z,16.36
2023-05-11T06:47:07.499Z,16.40
2023-05-11T06:48:07.462Z,16.38
2023-05-11T06:49:07.711Z,16.35
2023-05-11T06:50:07.748Z,16.34
2023-05-11T06:51:07.802Z,16.36
2023-05-11T06:52:07.455Z,16.34
2023-05-11T06:53:07.433Z,16.34
2023-05-11T06:54:07.324Z,16.31
2023-05-11T06:55:07.534Z,16.28
2023-05-11T06:56:07.354Z,16.27
2023-05-11T06:57:07.400Z,16.28
2023-05-11T06:58:07.293Z,16.26
2023-05-11T06:59:07.381Z,16.30
2023-05-11T07:00:07.316Z,16.36
2023-05-11T07:01:07.358Z,16.45
2023-05-11T07:02:07.259Z,16.57
2023-05-11T07:03:07.385Z,16.71
2023-05-11T07:04:07.383Z,16.83
2023-05-11T07:05:07.245Z,16.94
2023-05-11T07:06:07.184Z,17.07
2023-05-11T07:07:07.284Z,17.21
2023-05-11T07:08:07.116Z,17.29
2023-05-11T07:09:07.231Z,17.32
2023-05-11T07:10:07.118Z,17.29
2023-05-11T07:11:28.411Z,17.31
2023-05-11T07:12:07.180Z,17.39
2023-05-11T07:13:07.170Z,17.47
2023-05-11T07:14:07.041Z,17.51
2023-05-11T07:15:07.098Z,17.57
2023-05-11T07:16:07.042Z,17.57
2023-05-11T07:17:07.126Z,17.50
2023-05-11T07:18:07.039Z,17.43
2023-05-11T07:19:08.226Z,17.38
2023-05-11T07:20:06.969Z,17.33
2023-05-11T07:21:07.002Z,17.29
2023-05-11T07:22:06.955Z,17.29
2023-05-11T07:23:07.039Z,17.33
2023-05-11T07:24:06.905Z,17.40
2023-05-11T07:25:08.120Z,17.46
2023-05-11T07:26:06.902Z,17.56
2023-05-11T07:27:06.969Z,17.70
2023-05-11T07:28:06.897Z,17.76
2023-05-11T07:29:06.918Z,17.81
2023-05-11T07:30:07.985Z,17.87
2023-05-11T07:31:07.034Z,17.93
2023-05-11T07:32:06.830Z,17.97
2023-05-11T07:33:06.930Z,18.00
2023-05-11T07:34:06.917Z,17.96
2023-05-11T07:35:06.862Z,17.98
2023-05-11T07:36:06.893Z,17.99
2023-05-11T07:37:06.863Z,17.99
2023-05-11T07:38:06.849Z,17.97
2023-05-11T07:39:06.810Z,17.88
2023-05-11T07:40:06.832Z,17.72
2023-05-11T07:41:07.877Z,17.60
2023-05-11T07:42:06.718Z,17.54
2023-05-11T07:43:06.769Z,17.51
2023-05-11T07:44:06.696Z,17.47
2023-05-11T07:45:06.736Z,17.48
2023-05-11T07:46:06.657Z,17.53
2023-05-11T07:47:06.727Z,17.54
2023-05-11T07:48:06.661Z,17.53
2023-05-11T07:50:07.587Z,17.47
2023-05-11T07:51:06.646Z,17.45
2023-05-11T07:52:06.559Z,17.49
2023-05-11T07:53:06.617Z,17.60
2023-05-11T07:54:06.513Z,17.71
2023-05-11T07:55:06.643Z,17.77
2023-05-11T07:56:06.510Z,17.79
2023-05-11T07:57:06.560Z,17.79
2023-05-11T07:58:06.480Z,17.73
2023-05-11T07:59:06.527Z,17.68
2023-05-11T08:00:06.520Z,17.73
2023-05-11T08:01:09.831Z,17.75
2023-05-11T08:02:06.506Z,17.71
2023-05-11T08:03:06.632Z,17.67
2023-05-11T08:04:06.372Z,17.61
2023-05-11T08:05:06.463Z,17.59
2023-05-11T08:06:06.410Z,17.55
2023-05-11T08:07:06.392Z,17.58
2023-05-11T08:08:06.338Z,17.60
2023-05-11T08:09:06.372Z,17.61
2023-05-11T08:10:06.295Z,17.65
2023-05-11T08:11:06.366Z,17.69
2023-05-11T08:12:06.296Z,17.73
2023-05-11T08:13:06.456Z,17.76
2023-05-11T08:14:06.225Z,17.80
2023-05-11T08:15:06.315Z,17.86
2023-05-11T08:16:06.285Z,17.93
2023-05-11T08:17:06.358Z,17.99
2023-05-11T08:18:06.276Z,18.04
2023-05-11T08:19:06.368Z,18.07
2023-05-11T08:20:06.172Z,18.07
2023-05-11T08:21:06.236Z,18.10
2023-05-11T08:22:06.312Z,18.11
2023-05-11T08:23:06.152Z,18.15
2023-05-11T08:24:06.086Z,18.21
2023-05-11T08:25:07.231Z,18.23
2023-05-11T08:26:06.054Z,18.23
2023-05-11T08:27:06.166Z,18.21
2023-05-11T08:28:06.031Z,18.19
2023-05-11T08:29:06.060Z,18.18
2023-05-11T08:30:06.015Z,18.24
2023-05-11T08:31:06.216Z,18.32
2023-05-11T08:32:06.159Z,18.40
2023-05-11T08:33:20.140Z,18.48
2023-05-11T08:34:17.829Z,18.55
2023-05-11T08:35:07.112Z,18.60
2023-05-11T08:36:07.130Z,18.67
2023-05-11T08:37:06.124Z,18.68
2023-05-11T08:38:06.965Z,18.67
2023-05-11T08:39:06.471Z,18.65
2023-05-11T08:40:06.000Z,18.65
2023-05-11T08:41:06.419Z,18.69
2023-05-11T08:42:06.224Z,18.67
2023-05-11T08:43:06.109Z,18.66
2023-05-11T08:44:05.885Z,18.67
2023-05-11T08:45:05.811Z,18.64
2023-05-11T08:46:05.962Z,18.64
2023-05-11T08:47:21.176Z,18.62
2023-05-11T08:48:06.919Z,18.58
2023-05-11T08:49:05.806Z,18.54
2023-05-11T08:50:05.910Z,18.50
2023-05-11T08:51:06.054Z,18.48
2023-05-11T08:52:07.749Z,18.49
2023-05-11T08:53:05.763Z,18.51
2023-05-11T08:54:05.703Z,18.55
2023-05-11T08:55:05.768Z,18.62
2023-05-11T08:56:05.658Z,18.70
2023-05-11T08:57:05.756Z,18.74
2023-05-11T08:58:05.626Z,18.70
2023-05-11T08:59:05.669Z,18.68
2023-05-11T09:00:05.636Z,18.70
2023-05-11T09:01:05.756Z,18.75
2023-05-11T09:02:05.656Z,18.81
2023-05-11T09:03:05.804Z,18.89
2023-05-11T09:04:05.630Z,18.96
2023-05-11T09:05:06.033Z,18.99
2023-05-11T09:06:05.628Z,19.01
2023-05-11T09:07:05.590Z,19.03
2023-05-11T09:08:05.529Z,19.04
2023-05-11T09:09:05.556Z,19.06
2023-05-11T09:10:05.494Z,19.06
2023-05-11T09:11:05.723Z,19.10
2023-05-11T09:12:05.512Z,19.14
2023-05-11T09:13:05.676Z,19.14
2023-05-11T09:14:05.481Z,19.08
2023-05-11T09:15:05.485Z,19.08
2023-05-11T09:16:10.820Z,19.09
2023-05-11T09:17:06.940Z,19.10
2023-05-11T09:18:05.738Z,19.14
2023-05-11T09:19:05.544Z,19.17
2023-05-11T09:20:05.836Z,19.22
2023-05-11T09:21:05.353Z,19.27
2023-05-11T09:22:05.362Z,19.30
2023-05-11T09:23:05.435Z,19.31
2023-05-11T09:24:05.614Z,19.30
2023-05-11T09:25:05.332Z,19.23
2023-05-11T09:26:05.291Z,19.19
2023-05-11T09:27:05.439Z,19.17
2023-05-11T09:28:05.336Z,19.17
2023-05-11T09:29:05.488Z,19.20
2023-05-11T09:30:05.288Z,19.22
2023-05-11T09:31:05.272Z,19.23
2023-05-11T09:32:05.250Z,19.18
2023-05-11T09:33:05.261Z,19.14
2023-05-11T09:34:05.407Z,19.08
2023-05-11T09:35:05.338Z,19.05
2023-05-11T09:36:05.317Z,19.04
2023-05-11T09:37:05.164Z,19.05
2023-05-11T09:38:05.245Z,19.06
2023-05-11T09:39:05.272Z,19.07
2023-05-11T09:40:26.295Z,19.11
2023-05-11T09:41:06.298Z,19.13
2023-05-11T09:42:05.075Z,19.12
2023-05-11T09:43:05.230Z,19.10
2023-05-11T09:44:05.046Z,19.09
2023-05-11T09:45:05.114Z,19.10
2023-05-11T09:46:05.083Z,19.13
2023-05-11T09:47:05.158Z,19.19
2023-05-11T09:48:05.145Z,19.22
2023-05-11T09:49:05.079Z,19.26
2023-05-11T09:50:04.968Z,19.26
2023-05-11T09:51:05.120Z,19.25
2023-05-11T09:52:05.086Z,19.21
2023-05-11T09:53:05.023Z,19.17
2023-05-11T09:54:04.950Z,19.15
2023-05-11T09:55:05.060Z,19.17
2023-05-11T09:56:04.931Z,19.22
2023-05-11T09:57:04.871Z,19.29
2023-05-11T09:58:04.819Z,19.33
2023-05-11T09:59:04.957Z,19.34
2023-05-11T10:00:04.865Z,19.37
2023-05-11T10:01:04.822Z,19.38
2023-05-11T10:02:04.833Z,19.40
2023-05-11T10:03:04.953Z,19.41
2023-05-11T10:04:17.866Z,19.43
2023-05-11T10:05:06.004Z,19.45
2023-05-11T10:06:04.780Z,19.48
2023-05-11T10:07:04.827Z,19.50
2023-05-11T10:08:04.769Z,19.53
2023-05-11T10:09:04.700Z,19.56
2023-05-11T10:10:04.769Z,19.58
2023-05-11T10:11:04.816Z,19.60
2023-05-11T10:12:04.755Z,19.61
2023-05-11T10:13:04.676Z,19.62
2023-05-11T10:14:04.783Z,19.63
2023-05-11T10:15:04.701Z,19.64
2023-05-11T10:16:04.799Z,19.64
2023-05-11T10:17:04.595Z,19.66
2023-05-11T10:18:04.863Z,19.66
2023-05-11T10:19:04.886Z,19.67
2023-05-11T10:20:04.761Z,19.69
2023-05-11T10:21:04.641Z,19.70
2023-05-11T10:22:04.803Z,19.72
2023-05-11T10:23:05.697Z,19.75
2023-05-11T10:24:04.583Z,19.78
2023-05-11T10:25:04.455Z,19.82
2023-05-11T10:26:04.496Z,19.86
2023-05-11T10:27:04.468Z,19.91
2023-05-11T10:28:04.483Z,19.94
2023-05-11T10:29:04.465Z,19.98
2023-05-11T10:30:04.498Z,20.02
2023-05-11T10:31:04.383Z,20.06
2023-05-11T10:32:04.563Z,20.10
2023-05-11T10:33:04.449Z,20.12
2023-05-11T10:34:04.430Z,20.13
2023-05-11T10:35:04.353Z,20.13
2023-05-11T10:36:04.339Z,20.12
2023-05-11T10:37:04.294Z,20.12
2023-05-11T10:38:04.339Z,20.11
2023-05-11T10:39:04.257Z,20.08
2023-05-11T10:40:04.361Z,20.07
2023-05-11T10:41:04.278Z,20.06
2023-05-11T10:42:04.282Z,20.06
2023-05-11T10:43:04.210Z,20.07
2023-05-11T10:44:04.281Z,20.06
2023-05-11T10:45:04.179Z,20.05
2023-05-11T10:46:04.235Z,20.07
2023-05-11T10:47:04.191Z,20.09
2023-05-11T10:48:04.269Z,20.11
2023-05-11T10:49:04.128Z,20.11
2023-05-11T10:50:05.164Z,20.12
2023-05-11T10:51:04.089Z,20.11
2023-05-11T10:52:04.137Z,20.12
2023-05-11T10:53:04.098Z,20.12
2023-05-11T10:54:04.152Z,20.13
2023-05-11T10:55:04.040Z,20.13
2023-05-11T10:56:04.064Z,20.13
2023-05-11T10:57:04.057Z,20.13
2023-05-11T10:58:04.113Z,20.12
2023-05-11T10:59:04.031Z,20.13
2023-05-11T11:00:03.998Z,20.14
2023-05-11T11:01:04.106Z,20.14
2023-05-11T11:02:04.017Z,20.14
2023-05-11T11:03:03.965Z,20.14
2023-05-11T11:04:04.021Z,20.14
2023-05-11T11:05:03.956Z,20.12
2023-05-11T11:06:04.075Z,20.10
2023-05-11T11:07:03.883Z,20.11
2023-05-11T11:08:04.234Z,20.13
2023-05-11T11:09:04.028Z,20.16
2023-05-11T11:10:04.072Z,20.20
2023-05-11T11:11:05.640Z,20.25
2023-05-11T11:12:03.903Z,20.29
2023-05-11T11:13:03.878Z,20.33
2023-05-11T11:14:03.961Z,20.33
2023-05-11T11:15:03.797Z,20.34
2023-05-11T11:16:03.856Z,20.34
2023-05-11T11:17:03.830Z,20.34
2023-05-11T11:18:03.987Z,20.36
2023-05-11T11:19:03.856Z,20.38
2023-05-11T11:20:03.796Z,20.40
2023-05-11T11:21:03.750Z,20.44
2023-05-11T11:22:03.795Z,20.47
2023-05-11T11:23:03.741Z,20.48
2023-05-11T11:24:03.792Z,20.51
2023-05-11T11:25:03.649Z,20.56
2023-05-11T11:26:03.684Z,20.58
2023-05-11T11:27:03.642Z,20.60
2023-05-11T11:28:03.716Z,20.61
2023-05-11T11:29:03.649Z,20.62
2023-05-11T11:30:03.610Z,20.60
2023-05-11T11:31:03.588Z,20.57
2023-05-11T11:32:03.699Z,20.51
2023-05-11T11:33:03.630Z,20.44
2023-05-11T11:34:03.662Z,20.37
2023-05-11T11:35:03.561Z,20.32
2023-05-11T11:36:03.544Z,20.28
2023-05-11T11:37:03.747Z,20.26
2023-05-11T11:38:03.629Z,20.25
2023-05-11T11:39:03.621Z,20.25
2023-05-11T11:40:13.937Z,20.27
2023-05-11T11:41:04.467Z,20.30
2023-05-11T11:42:03.517Z,20.33
2023-05-11T11:43:03.526Z,20.35
2023-05-11T11:44:03.506Z,20.39
2023-05-11T11:45:03.404Z,20.43
2023-05-11T11:46:03.502Z,20.48
2023-05-11T11:47:03.488Z,20.55
2023-05-11T11:48:03.496Z,20.61
2023-05-11T11:49:03.351Z,20.66
2023-05-11T11:50:03.350Z,20.71
2023-05-11T11:51:03.311Z,20.73
2023-05-11T11:52:03.364Z,20.73
2023-05-11T11:53:03.304Z,20.75
2023-05-11T11:54:03.392Z,20.76
2023-05-11T11:55:03.265Z,20.76
2023-05-11T11:56:03.374Z,20.74
2023-05-11T11:57:03.240Z,20.74
2023-05-11T11:58:03.322Z,20.75
2023-05-11T11:59:03.288Z,20.75
2023-05-11T12:00:03.254Z,20.75
2023-05-11T12:01:03.177Z,20.76
2023-05-11T12:02:03.257Z,20.78
2023-05-11T12:03:03.318Z,20.77
2023-05-11T12:04:03.398Z,20.77
2023-05-11T12:05:03.224Z,20.76
2023-05-11T12:06:03.162Z,20.74
2023-05-11T12:07:03.089Z,20.73
2023-05-11T12:08:03.153Z,20.73
2023-05-11T12:09:03.083Z,20.75
2023-05-11T12:10:03.183Z,20.77
2023-05-11T12:11:03.063Z,20.79
2023-05-11T12:12:03.081Z,20.84
2023-05-11T12:13:03.001Z,20.89
2023-05-11T12:14:03.170Z,20.96
2023-05-11T12:15:03.105Z,21.04
2023-05-11T12:16:03.110Z,21.11
2023-05-11T12:17:03.021Z,21.16
2023-05-11T12:18:03.077Z,21.20
2023-05-11T12:19:02.987Z,21.23
2023-05-11T12:20:03.033Z,21.27
2023-05-11T12:21:02.915Z,21.24
2023-05-11T12:22:02.987Z,21.21
2023-05-11T12:23:02.938Z,21.20
2023-05-11T12:24:03.053Z,21.19
2023-05-11T12:25:02.870Z,21.20
2023-05-11T12:26:02.879Z,21.24
2023-05-11T12:27:03.045Z,21.30
2023-05-11T12:28:02.893Z,21.35
2023-05-11T12:29:02.823Z,21.41
2023-05-11T12:30:02.825Z,21.47
2023-05-11T12:31:02.768Z,21.54
2023-05-11T12:32:03.062Z,21.60
2023-05-11T12:33:02.812Z,21.64
2023-05-11T12:34:02.891Z,21.68
2023-05-11T12:35:02.767Z,21.71
2023-05-11T12:36:02.879Z,21.69
2023-05-11T12:37:02.808Z,21.67
2023-05-11T12:38:02.814Z,21.63
2023-05-11T12:39:02.664Z,21.59
2023-05-11T12:40:02.859Z,21.59
2023-05-11T12:41:02.661Z,21.61
2023-05-11T12:42:02.754Z,21.62
2023-05-11T12:43:02.786Z,21.61
2023-05-11T12:44:02.618Z,21.53
2023-05-11T12:45:02.789Z,21.46
2023-05-11T12:46:02.770Z,21.46
2023-05-11T12:47:02.628Z,21.49
2023-05-11T12:48:02.684Z,21.55
2023-05-11T12:49:02.519Z,21.58
2023-05-11T12:50:02.609Z,21.59
2023-05-11T12:51:02.548Z,21.61
2023-05-11T12:52:02.615Z,21.65
2023-05-11T12:53:02.548Z,21.68